Latest Coastal Weather Observations for Green Cape

IDN60701

Issued at 2:32 pm EST Thursday 25 August 2016 (issued every 10 minutes, with the page automatically refreshed every 10 minutes)

About coastal observations | Map of coastal stations | Coastal observations for NSW | Marine services | Other Formats
Station Details ID: 069137 Name: GREEN CAPE AWS Lat: -37.26 Lon: 150.05 Height: 19.4 m
Data from the previous 72 hours. | See also: Recent months at Green Cape
Date/Time
EST
Temp
°C
Wind Pressure Rain since
9am
mm
Weather Cloud Vis
km
Sea
Height
m
Swell
Dir  Spd
kts
Gust
kts
hPa Trend Height
m
Period
s
Dir
25/02:30pm 12.8 SSW 18 26 1010.8 - 0.0 - - - - - - -
25/02:00pm 13.0 SSW 16 21 1010.5 - 0.0 - - - - - - -
25/01:30pm 12.2 SW 21 24 1010.3 - 0.0 - - - - - - -
25/01:00pm 12.8 SW 19 26 1010.4 - 0.0 - - - - - - -
25/12:30pm 12.6 SW 20 27 1010.4 - 0.0 - - - - - - -
25/12:00pm 12.7 SW 20 27 1010.7 - 0.0 - - - - - - -
25/11:30am 12.3 WSW 21 26 1010.7 - 0.0 - - - - - - -
25/11:00am 12.3 WSW 18 22 1010.7 - 0.0 - - - - - - -
25/10:30am 11.9 WSW 21 25 1010.7 - 0.0 - - - - - - -
25/10:00am 11.4 WSW 20 25 1010.8 - 0.0 - - - - - - -
25/09:30am 11.0 WSW 19 23 1010.9 - 0.0 - - - - - - -
25/09:00am 10.2 WSW 18 22 1010.9 - 0.0 - - - - - - -
25/08:30am 9.8 WSW 22 26 1010.6 - 0.0 - - - - - - -
25/08:00am 9.7 WSW 24 31 1010.2 - 0.0 - - - - - - -
25/07:30am 9.6 WSW 25 29 1010.0 - 0.0 - - - - - - -
25/07:00am 9.4 WSW 21 25 1010.0 - 0.0 - - - - - - -
25/06:30am 9.4 WSW 20 24 1010.0 - 0.0 - - - - - - -
25/06:00am 9.4 WSW 22 27 1009.6 - 0.0 - - - - - - -
25/05:30am 9.5 WSW 19 22 1009.4 - 0.0 - - - - - - -
25/05:00am 9.6 WSW 20 23 1009.3 - 0.0 - - - - - - -
25/04:30am 9.8 WSW 19 24 1009.4 - 0.0 - - - - - - -
25/04:00am 9.9 WSW 19 23 1009.5 - 0.0 - - - - - - -
25/03:30am 9.9 SW 20 24 1009.4 - 0.0 - - - - - - -
25/03:00am 10.0 WSW 19 21 1009.3 - 0.0 - - - - - - -
25/02:30am 10.0 WSW 20 24 1009.3 - 0.0 - - - - - - -
25/02:00am 10.2 WSW 16 19 1009.4 - 0.0 - - - - - - -
25/01:30am 10.2 WSW 18 21 1009.5 - 0.0 - - - - - - -
25/01:00am 10.2 WSW 16 18 1009.8 - 0.0 - - - - - - -
25/12:30am 10.3 WSW 19 22 1009.8 - 0.0 - - - - - - -
25/12:00am 10.6 WSW 17 20 1010.1 - 0.0 - - - - - - -
 
Date/Time
EST
Temp
°C
Wind Pressure Rain since
9am
mm
Weather Cloud Vis
km
Sea
Height
m
Swell
Dir  Spd
kts
Gust
kts
hPa Trend Height
m
Period
s
Dir
24/11:30pm 10.6 WSW 12 17 1010.2 - 0.0 - - - - - - -
24/11:00pm 10.4 WSW 14 16 1010.4 - 0.0 - - - - - - -
24/10:30pm 10.4 WSW 13 14 1010.9 - 0.0 - - - - - - -
24/10:00pm 10.5 WSW 13 15 1011.2 - 0.0 - - - - - - -
24/09:30pm 10.6 WSW 11 13 1011.4 - 0.0 - - - - - - -
24/09:00pm 10.8 WSW 12 14 1011.4 - 0.0 - - - - - - -
24/08:30pm 10.9 WSW 10 12 1011.6 - 0.0 - - - - - - -
24/08:00pm 10.9 WSW 14 17 1011.8 - 0.0 - - - - - - -
24/07:30pm 10.9 WSW 11 14 1011.9 - 0.0 - - - - - - -
24/07:00pm 11.1 WSW 12 14 1011.7 - 0.0 - - - - - - -
24/06:30pm 11.2 SSW 17 20 1011.4 - 0.0 - - - - - - -
24/06:00pm 11.5 SSW 15 17 1011.5 - 0.0 - - - - - - -
24/05:30pm 11.6 SSW 16 18 1011.5 - 0.0 - - - - - - -
24/05:00pm 11.8 SSW 17 19 1011.2 - 0.0 - - - - - - -
24/04:30pm 11.9 S 17 20 1010.9 - 0.0 - - - - - - -
24/04:00pm 12.1 S 15 17 1011.0 - 0.0 - - - - - - -
24/03:30pm 12.2 S 14 15 1011.4 - 0.0 - - - - - - -
24/03:00pm 12.5 S 14 15 1011.5 - 0.0 - - - - - - -
24/02:30pm 13.1 S 13 14 1011.6 - 0.0 - - - - - - -
24/02:00pm 13.2 S 12 14 1012.0 - 0.0 - - - - - - -
24/01:30pm 13.5 S 10 13 1012.1 - 0.0 - - - - - - -
24/01:00pm 13.9 S 9 10 1012.4 - 0.0 - - - - - - -
24/12:30pm 14.6 SSE 8 10 1012.9 - 0.0 - - - - - - -
24/12:00pm 15.7 SSE 6 7 1013.4 - 0.0 - - - - - - -
24/11:30am 15.0 S 4 5 1014.2 - 0.0 - - - - - - -
24/11:00am 13.4 SSW 4 7 1014.8 - 0.0 - - - - - - -
24/10:30am 12.9 W 6 7 1015.1 - 0.0 - - - - - - -
24/10:00am 11.9 W 5 6 1015.3 - 0.0 - - - - - - -
24/09:30am 11.1 W 7 9 1015.5 - 0.0 - - - - - - -
24/09:00am 10.0 W 10 12 1015.4 - 0.0 - - - - - - -
24/08:30am 9.3 W 13 15 1015.4 - 0.0 - - - - - - -
24/08:00am 8.7 W 14 16 1015.5 - 0.0 - - - - - - -
24/07:30am 8.8 W 14 16 1015.9 - 0.0 - - - - - - -
24/07:00am 8.4 W 13 15 1015.7 - 0.0 - - - - - - -
24/06:30am 8.3 W 13 15 1015.3 - 0.0 - - - - - - -
24/06:00am 8.1 W 9 11 1015.4 - 0.0 - - - - - - -
24/05:30am 8.1 W 11 12 1014.9 - 0.0 - - - - - - -
24/05:00am 8.1 W 10 12 1015.2 - 0.0 - - - - - - -
24/04:30am 8.0 W 11 13 1015.4 - 0.0 - - - - - - -
24/04:00am 8.2 W 12 13 1015.6 - 0.0 - - - - - - -
24/03:30am 8.4 W 11 13 1015.7 - 0.0 - - - - - - -
24/03:00am 8.2 W 12 13 1015.8 - 0.0 - - - - - - -
24/02:30am 8.3 W 14 15 1015.9 - 0.0 - - - - - - -
24/02:00am 7.8 W 12 13 1016.5 - 0.0 - - - - - - -
24/01:30am 8.2 W 13 15 1016.8 - 0.0 - - - - - - -
24/01:00am 8.3 W 13 15 1017.2 - 0.0 - - - - - - -
24/12:30am 8.7 W 13 16 1017.3 - 0.0 - - - - - - -
24/12:00am 8.5 WNW 12 14 1017.4 - 0.0 - - - - - - -
 
Date/Time
EST
Temp
°C
Wind Pressure Rain since
9am
mm
Weather Cloud Vis
km
Sea
Height
m
Swell
Dir  Spd
kts
Gust
kts
hPa Trend Height
m
Period
s
Dir
23/11:30pm 8.8 WNW 12 15 1017.2 - 0.0 - - - - - - -
23/11:00pm 8.8 WNW 10 13 1017.2 - 0.0 - - - - - - -
23/10:30pm 8.5 WNW 7 10 1017.0 - 0.0 - - - - - - -
23/10:00pm 9.3 W 10 12 1017.1 - 0.0 - - - - - - -
23/09:30pm 9.6 W 9 10 1017.4 - 0.0 - - - - - - -
23/09:00pm 10.4 W 9 11 1017.4 - 0.0 - - - - - - -
23/08:30pm 10.7 SW 11 14 1017.1 - 0.0 - - - - - - -
23/08:00pm 10.9 SSW 17 19 1016.6 - 0.0 - - - - - - -
23/07:30pm 10.8 SSW 17 20 1016.2 - 0.0 - - - - - - -
23/07:00pm 11.1 SSW 16 20 1015.9 - 0.0 - - - - - - -
23/06:30pm 11.2 SSW 16 19 1016.1 - 0.0 - - - - - - -
23/06:00pm 11.6 SSW 13 14 1016.2 - 0.0 - - - - - - -
23/05:30pm 11.9 SSW 14 16 1016.2 - 0.0 - - - - - - -
23/05:00pm 12.1 SSW 15 17 1016.1 - 0.0 - - - - - - -
23/04:30pm 12.4 S 17 20 1015.2 - 0.0 - - - - - - -
23/04:00pm 12.5 SSW 18 21 1014.9 - 0.0 - - - - - - -
23/03:30pm 12.8 S 16 18 1014.8 - 0.0 - - - - - - -
23/03:00pm 13.2 SSW 15 20 1015.0 - 0.0 - - - - - - -
23/02:30pm 13.2 SSW 18 23 1014.6 - 0.0 - - - - - - -
23/02:00pm 12.6 SSW 19 23 1014.4 - 0.0 - - - - - - -
23/01:30pm 12.8 SSW 21 24 1014.4 - 0.0 - - - - - - -
23/01:00pm 13.1 SSW 20 24 1014.3 - 0.0 - - - - - - -
23/12:30pm 12.8 SSW 20 23 1014.3 - 0.0 - - - - - - -
23/12:00pm 12.7 SW 20 23 1014.7 - 0.0 - - - - - - -
23/11:30am 12.0 SW 23 26 1014.9 - 0.0 - - - - - - -
23/11:00am 11.7 WSW 15 20 1015.4 - 0.0 - - - - - - -
23/10:30am 11.2 WSW 16 18 1015.6 - 0.0 - - - - - - -
23/10:00am 10.9 SW 17 19 1015.4 - 0.0 - - - - - - -
23/09:30am 10.5 WSW 19 21 1015.3 - 0.0 - - - - - - -
23/09:00am 10.5 WSW 19 21 1015.1 - 1.6 - - - - - - -
23/08:30am 10.4 WSW 21 23 1015.0 - 1.6 - - - - - - -
23/08:00am 10.6 WSW 20 23 1014.7 - 1.6 - - - - - - -
23/07:30am 10.5 WSW 18 21 1014.6 - 1.6 - - - - - - -
23/07:00am 10.5 WSW 16 18 1014.1 - 1.6 - - - - - - -
23/06:30am 10.4 WSW 20 23 1013.7 - 1.6 - - - - - - -
23/06:00am 10.3 SW 12 16 1013.6 - 1.6 Rain - - - - - -
23/05:30am 10.3 S 14 18 1013.3 - 0.8 - - - - - - -
23/05:00am 10.6 SSW 16 19 1012.9 - 0.6 - - - - - - -
23/04:30am 11.2 SSW 21 23 1012.6 - 0.4 - - - - - - -
23/04:09am 11.6 SW 18 25 1012.5 - 0.4 - - - - - - -
23/04:00am 11.3 WSW 16 18 1012.6 - 0.4 - - - - - - -
23/03:30am 11.1 WSW 16 19 1012.5 - 0.4 - - - - - - -
23/03:00am 11.4 WSW 17 19 1012.4 - 0.4 - - - - - - -
23/02:30am 11.4 W 16 19 1012.6 - 0.4 - - - - - - -
23/02:00am 12.4 SW 13 19 1012.6 - 0.4 - - - - - - -
23/01:30am 11.6 WSW 9 11 1013.0 - 0.4 - - - - - - -
23/01:00am 11.4 WSW 9 11 1013.1 - 0.4 - - - - - - -
23/12:30am 11.0 WSW 8 9 1013.2 - 0.4 - - - - - - -
23/12:00am 10.9 W 9 10 1013.1 - 0.4 - - - - - - -
 
Date/Time
EST
Temp
°C
Wind Pressure Rain since
9am
mm
Weather Cloud Vis
km
Sea
Height
m
Swell
Dir  Spd
kts
Gust
kts
hPa Trend Height
m
Period
s
Dir
22/11:30pm 10.7 W 9 10 1013.2 - 0.4 - - - - - - -
22/11:00pm 11.1 W 8 9 1013.2 - 0.4 - - - - - - -
22/10:30pm 11.1 W 8 10 1013.4 - 0.4 - - - - - - -
22/10:00pm 11.2 W 8 9 1013.5 - 0.4 - - - - - - -
22/09:30pm 11.6 W 9 10 1013.5 - 0.4 - - - - - - -
22/09:00pm 11.9 W 11 12 1013.7 - 0.4 - - - - - - -
22/08:30pm 12.0 W 6 8 1013.8 - 0.4 - - - - - - -
22/08:00pm 12.1 W 6 7 1013.9 - 0.4 - - - - - - -
22/07:30pm 12.3 W 8 9 1013.9 - 0.4 - - - - - - -
22/07:00pm 12.6 W 10 11 1014.0 - 0.4 - - - - - - -
22/06:30pm 12.6 CALM 0 0 1013.7 - 0.4 - - - - - - -
22/06:00pm 12.7 CALM 0 0 1013.4 - 0.4 - - - - - - -
22/05:30pm 12.8 S 1 4 1013.1 - 0.4 - - - - - - -
22/05:00pm 13.2 NNE 2 2 1013.1 - 0.4 - - - - - - -
22/04:30pm 13.3 W 1 2 1013.1 - 0.4 - - - - - - -
22/04:00pm 14.1 CALM 0 0 1013.0 - 0.4 - - - - - - -
22/03:30pm 13.9 S 4 4 1013.2 - 0.4 - - - - - - -
22/03:00pm 14.7 NE 3 7 1013.3 - 0.4 - - - - - - -

Other Formats:

Comma delimited format used in spreadsheet applications
http://www.bom.gov.au/fwo/IDN60701/IDN60701.94934.axf

JavaScript Object Notation format (JSON) in row-major order
http://www.bom.gov.au/fwo/IDN60701/IDN60701.94934.json